Time;durP1;ratioP1;P1;durP2;ratioP2;P2;SDS_P1;SDS_P2;PMS_P1;PMS_P2;Temp;Humidity;BMP_temperature;BMP_pressure;BME280_temperature;BME280_humidity;BME280_pressure;Samples;Min_cycle;Max_cycle;Signal;HPM_P1;HPM_P2
2022/07/30 00:01:55;;;;;;;4.13;2.40;;;;;;;;;;6156228;23;20005;-71
2022/07/30 00:04:23;;;;;;;4.45;2.70;;;;;;;;;;6155830;23;20005;-71
2022/07/30 00:06:49;;;;;;;3.28;2.35;;;;;;;;;;6156556;23;20008;-71
2022/07/30 00:09:15;;;;;;;3.05;2.38;;;;;;;;;;6156099;23;20010;-71
2022/07/30 00:11:41;;;;;;;3.60;2.72;;;;;;;;;;6157542;23;20001;-71
2022/07/30 00:14:08;;;;;;;2.85;2.63;;;;;;;;;;6156813;23;20005;-71
2022/07/30 00:16:34;;;;;;;5.30;2.92;;;;;;;;;;6156526;23;20001;-71
2022/07/30 00:19:01;;;;;;;2.72;2.35;;;;;;;;;;6156658;23;20006;-71
2022/07/30 00:21:27;;;;;;;5.75;2.78;;;;;;;;;;6156495;23;20005;-71
2022/07/30 00:23:53;;;;;;;3.92;3.00;;;;;;;;;;6155861;23;20039;-71
2022/07/30 00:26:19;;;;;;;4.10;2.80;;;;;;;;;;6158166;23;20085;-71
2022/07/30 00:28:45;;;;;;;4.63;2.90;;;;;;;;;;6158560;23;20098;-71
2022/07/30 00:31:11;;;;;;;3.25;2.95;;;;;;;;;;6158226;23;20012;-71
2022/07/30 00:33:37;;;;;;;4.88;2.90;;;;;;;;;;6158707;23;20480;-71
2022/07/30 00:36:03;;;;;;;4.03;2.90;;;;;;;;;;6158126;23;20012;-71
2022/07/30 00:38:30;;;;;;;3.25;2.63;;;;;;;;;;6158509;23;20520;-71
2022/07/30 00:40:57;;;;;;;2.72;2.53;;;;;;;;;;6158826;23;20056;-71
2022/07/30 00:43:23;;;;;;;6.47;3.30;;;;;;;;;;6159119;23;20006;-71
2022/07/30 00:45:49;;;;;;;4.63;2.83;;;;;;;;;;6158986;23;20013;-71
2022/07/30 00:48:16;;;;;;;3.30;2.70;;;;;;;;;;6158744;23;20088;-71
2022/07/30 00:50:42;;;;;;;3.15;2.85;;;;;;;;;;6157961;23;20002;-71
2022/07/30 00:53:08;;;;;;;3.65;3.17;;;;;;;;;;6158208;23;20500;-71
2022/07/30 00:55:35;;;;;;;5.55;2.97;;;;;;;;;;6158548;23;20144;-71
2022/07/30 00:58:01;;;;;;;5.10;3.30;;;;;;;;;;6158459;23;20104;-71
2022/07/30 01:00:27;;;;;;;5.03;3.05;;;;;;;;;;6158176;23;20106;-71
2022/07/30 01:02:54;;;;;;;3.13;2.75;;;;;;;;;;6159048;23;20048;-71
2022/07/30 01:05:20;;;;;;;4.38;3.17;;;;;;;;;;6158180;23;20005;-72
2022/07/30 01:07:46;;;;;;;4.90;3.13;;;;;;;;;;6158246;23;20016;-72
2022/07/30 01:10:13;;;;;;;4.15;2.72;;;;;;;;;;6158003;23;20002;-71
2022/07/30 01:12:40;;;;;;;3.47;2.85;;;;;;;;;;6158931;23;20005;-72
2022/07/30 01:15:07;;;;;;;4.88;2.70;;;;;;;;;;6157918;23;20507;-71
2022/07/30 01:17:34;;;;;;;3.20;2.83;;;;;;;;;;6158164;23;20009;-71
2022/07/30 01:20:03;;;;;;;4.57;2.72;;;;;;;;;;6158133;23;20004;-71
2022/07/30 01:22:35;;;;;;;4.75;2.92;;;;;;;;;;6158114;23;20465;-71
2022/07/30 01:25:05;;;;;;;4.53;2.75;;;;;;;;;;6157930;23;20076;-71
2022/07/30 01:27:33;;;;;;;5.25;2.88;;;;;;;;;;6158143;23;20013;-71
2022/07/30 01:30:02;;;;;;;4.45;3.00;;;;;;;;;;6158011;23;20012;-71
2022/07/30 01:32:28;;;;;;;6.35;3.35;;;;;;;;;;6158103;23;20052;-71
2022/07/30 01:34:55;;;;;;;4.30;3.28;;;;;;;;;;6158217;23;20433;-71
2022/07/30 01:37:22;;;;;;;4.28;3.13;;;;;;;;;;6157954;23;20012;-71
2022/07/30 01:39:50;;;;;;;3.00;2.75;;;;;;;;;;6157602;23;20005;-71
2022/07/30 01:42:17;;;;;;;8.57;3.42;;;;;;;;;;6157904;23;20002;-71
2022/07/30 01:44:44;;;;;;;4.13;3.00;;;;;;;;;;6158273;23;20429;-71
2022/07/30 01:47:11;;;;;;;4.25;2.95;;;;;;;;;;6158109;23;20005;-71
2022/07/30 01:49:38;;;;;;;4.55;3.60;;;;;;;;;;6157827;23;20017;-71
2022/07/30 01:52:05;;;;;;;3.88;3.03;;;;;;;;;;6157781;23;20005;-71
2022/07/30 01:54:32;;;;;;;5.22;3.17;;;;;;;;;;6157329;23;20172;-72
2022/07/30 01:57:00;;;;;;;5.35;3.00;;;;;;;;;;6158115;23;20033;-72
2022/07/30 01:59:27;;;;;;;4.25;3.33;;;;;;;;;;6153904;23;20005;-71
2022/07/30 02:01:54;;;;;;;3.85;2.88;;;;;;;;;;6156288;23;20028;-71
2022/07/30 02:04:20;;;;;;;4.90;3.10;;;;;;;;;;6155485;23;20426;-71
2022/07/30 02:06:51;;;;;;;4.45;3.13;;;;;;;;;;6157119;23;20005;-71
2022/07/30 02:09:22;;;;;;;3.92;3.63;;;;;;;;;;6157387;23;20017;-71
2022/07/30 02:15:00;;;;;;;4.53;3.40;;;;;;;;;;6156918;23;20125;-71
2022/07/30 02:17:29;;;;;;;6.28;3.60;;;;;;;;;;6153589;23;20005;-71
2022/07/30 02:19:56;;;;;;;4.70;3.47;;;;;;;;;;6157283;23;20006;-71
2022/07/30 02:22:24;;;;;;;3.53;3.03;;;;;;;;;;6157834;23;20492;-71
2022/07/30 02:24:51;;;;;;;5.22;3.67;;;;;;;;;;6157143;23;20005;-71
2022/07/30 02:27:25;;;;;;;4.60;3.70;;;;;;;;;;6157049;23;20337;-72
2022/07/30 02:29:52;;;;;;;4.22;3.05;;;;;;;;;;6157434;23;20020;-72
2022/07/30 02:32:19;;;;;;;3.95;3.30;;;;;;;;;;6157452;23;20033;-71
2022/07/30 02:34:48;;;;;;;7.00;3.53;;;;;;;;;;6157344;23;20433;-71
2022/07/30 02:37:14;;;;;;;4.95;3.00;;;;;;;;;;6156482;23;20334;-71
2022/07/30 02:39:42;;;;;;;4.30;3.80;;;;;;;;;;6157227;23;20052;-71
2022/07/30 02:42:09;;;;;;;5.25;3.80;;;;;;;;;;6157011;23;20005;-72
2022/07/30 02:44:36;;;;;;;5.60;3.40;;;;;;;;;;6157334;23;20080;-72
2022/07/30 02:47:04;;;;;;;4.20;3.40;;;;;;;;;;6155385;23;20421;-71
2022/07/30 02:49:31;;;;;;;3.65;2.97;;;;;;;;;;6156924;23;20009;-72
2022/07/30 02:51:58;;;;;;;6.32;3.60;;;;;;;;;;6157227;23;20010;-71
2022/07/30 02:54:24;;;;;;;5.78;3.60;;;;;;;;;;6157278;23;20060;-72
2022/07/30 02:56:51;;;;;;;3.80;3.40;;;;;;;;;;6157228;23;20085;-72
2022/07/30 02:59:19;;;;;;;3.90;3.17;;;;;;;;;;6156884;23;20029;-71
2022/07/30 03:01:47;;;;;;;5.55;3.85;;;;;;;;;;6156817;23;20001;-71
2022/07/30 03:04:13;;;;;;;4.80;3.35;;;;;;;;;;6157071;23;20008;-71
2022/07/30 03:06:40;;;;;;;4.20;3.38;;;;;;;;;;6157964;23;20013;-71
2022/07/30 03:09:06;;;;;;;5.40;3.40;;;;;;;;;;6157089;23;20005;-71
2022/07/30 03:11:34;;;;;;;4.85;3.25;;;;;;;;;;6156830;23;20005;-71
2022/07/30 03:14:00;;;;;;;5.30;3.08;;;;;;;;;;6157286;23;20025;-72
2022/07/30 03:16:27;;;;;;;3.75;2.92;;;;;;;;;;6157041;23;20009;-72
2022/07/30 03:18:54;;;;;;;4.88;3.30;;;;;;;;;;6157003;23;20025;-72
2022/07/30 03:21:23;;;;;;;3.83;3.10;;;;;;;;;;6156966;23;20037;-72
2022/07/30 03:23:50;;;;;;;5.55;2.80;;;;;;;;;;6157248;23;20001;-72
2022/07/30 03:26:19;;;;;;;3.70;3.25;;;;;;;;;;6156533;23;20052;-72
2022/07/30 03:28:46;;;;;;;5.30;3.22;;;;;;;;;;6156536;23;20080;-71
2022/07/30 03:31:13;;;;;;;4.03;3.33;;;;;;;;;;6156574;23;20010;-72
2022/07/30 03:33:40;;;;;;;12.15;3.30;;;;;;;;;;6157538;23;20077;-72
2022/07/30 03:36:07;;;;;;;4.43;3.25;;;;;;;;;;6156876;23;20013;-72
2022/07/30 03:38:36;;;;;;;5.00;3.28;;;;;;;;;;6156280;23;20077;-71
2022/07/30 03:41:02;;;;;;;4.38;3.20;;;;;;;;;;6156465;23;20341;-71
2022/07/30 03:43:29;;;;;;;10.38;3.45;;;;;;;;;;6156862;23;20072;-71
2022/07/30 03:45:55;;;;;;;4.10;3.40;;;;;;;;;;6155357;23;20337;-71
2022/07/30 03:48:21;;;;;;;4.65;3.47;;;;;;;;;;6156768;23;20009;-71
2022/07/30 03:50:48;;;;;;;5.82;3.78;;;;;;;;;;6156749;23;20006;-71
2022/07/30 03:53:14;;;;;;;3.10;2.90;;;;;;;;;;6156878;23;19997;-71
2022/07/30 03:55:41;;;;;;;4.28;3.40;;;;;;;;;;6157359;23;20026;-71
2022/07/30 03:58:10;;;;;;;5.00;3.53;;;;;;;;;;6156904;23;20421;-72
2022/07/30 04:00:38;;;;;;;3.78;3.03;;;;;;;;;;6156300;23;20005;-72
2022/07/30 04:03:04;;;;;;;5.32;3.28;;;;;;;;;;6155516;23;20329;-72
2022/07/30 04:05:30;;;;;;;5.13;3.42;;;;;;;;;;6156591;23;20044;-72
2022/07/30 04:07:56;;;;;;;3.20;2.90;;;;;;;;;;6156848;23;20029;-72
2022/07/30 04:10:22;;;;;;;3.20;2.85;;;;;;;;;;6156113;23;20032;-71
2022/07/30 04:12:48;;;;;;;5.32;3.20;;;;;;;;;;6157158;23;20006;-71
2022/07/30 04:15:15;;;;;;;4.63;3.30;;;;;;;;;;6156502;23;20002;-71
2022/07/30 04:17:43;;;;;;;6.07;3.50;;;;;;;;;;6156978;23;20021;-71
2022/07/30 04:20:12;;;;;;;5.72;3.40;;;;;;;;;;6156262;23;20005;-71
2022/07/30 04:22:38;;;;;;;3.47;3.20;;;;;;;;;;6156256;23;20005;-71
2022/07/30 04:25:05;;;;;;;3.90;3.22;;;;;;;;;;6156284;23;20422;-71
2022/07/30 04:27:32;;;;;;;6.28;3.33;;;;;;;;;;6156912;23;20013;-71
2022/07/30 04:29:58;;;;;;;4.80;3.38;;;;;;;;;;6156581;23;20005;-72
2022/07/30 04:32:25;;;;;;;3.35;3.05;;;;;;;;;;6156556;23;20025;-72
2022/07/30 04:34:53;;;;;;;4.75;3.63;;;;;;;;;;6156181;23;20064;-72
2022/07/30 04:37:20;;;;;;;4.47;3.78;;;;;;;;;;6156502;23;20005;-71
2022/07/30 04:39:50;;;;;;;6.18;3.78;;;;;;;;;;6156095;23;20012;-72
2022/07/30 04:42:16;;;;;;;7.28;4.07;;;;;;;;;;6156898;23;20008;-72
2022/07/30 04:44:42;;;;;;;3.85;3.45;;;;;;;;;;6156492;23;20029;-72
2022/07/30 04:47:08;;;;;;;4.05;3.15;;;;;;;;;;6156084;23;20065;-72
2022/07/30 04:49:34;;;;;;;3.97;3.50;;;;;;;;;;6156491;23;20016;-72
2022/07/30 04:52:02;;;;;;;4.10;3.33;;;;;;;;;;6156476;23;20008;-72
2022/07/30 04:54:35;;;;;;;5.18;3.28;;;;;;;;;;6156378;23;20072;-72
2022/07/30 04:57:02;;;;;;;6.05;3.20;;;;;;;;;;6156224;23;20006;-72
2022/07/30 04:59:28;;;;;;;7.35;3.67;;;;;;;;;;6156247;23;20012;-72
2022/07/30 05:01:56;;;;;;;6.07;3.53;;;;;;;;;;6156770;23;20002;-72
2022/07/30 05:04:23;;;;;;;4.63;3.20;;;;;;;;;;6156836;23;20009;-72
2022/07/30 05:06:49;;;;;;;4.45;3.20;;;;;;;;;;6156306;23;20009;-72
2022/07/30 05:09:15;;;;;;;5.78;3.40;;;;;;;;;;6156362;23;20064;-72
2022/07/30 05:11:41;;;;;;;5.38;3.30;;;;;;;;;;6158171;23;20345;-72
2022/07/30 05:14:08;;;;;;;6.28;3.30;;;;;;;;;;6157453;23;20012;-71
2022/07/30 05:16:34;;;;;;;10.02;3.70;;;;;;;;;;6158854;23;20413;-72
2022/07/30 05:19:00;;;;;;;7.40;3.90;;;;;;;;;;6157779;23;20006;-72
2022/07/30 05:21:26;;;;;;;6.28;4.57;;;;;;;;;;6157365;23;20001;-72
2022/07/30 05:23:52;;;;;;;4.82;3.58;;;;;;;;;;6156070;23;20084;-71
2022/07/30 05:26:19;;;;;;;6.25;3.38;;;;;;;;;;6157500;23;20084;-72
2022/07/30 05:28:45;;;;;;;7.65;3.90;;;;;;;;;;6158031;23;20464;-72
2022/07/30 05:31:11;;;;;;;3.55;3.05;;;;;;;;;;6158065;23;20013;-72
2022/07/30 05:33:37;;;;;;;6.32;3.60;;;;;;;;;;6157531;23;20445;-71
2022/07/30 05:36:04;;;;;;;5.05;3.25;;;;;;;;;;6157997;23;20001;-72
2022/07/30 05:38:30;;;;;;;3.10;2.80;;;;;;;;;;6157385;23;20081;-71
2022/07/30 05:40:56;;;;;;;4.63;3.05;;;;;;;;;;6158240;23;20029;-71
2022/07/30 05:43:22;;;;;;;4.53;3.28;;;;;;;;;;6157978;23;20008;-72
2022/07/30 05:45:48;;;;;;;4.40;3.10;;;;;;;;;;6157693;23;20560;-72
2022/07/30 05:48:14;;;;;;;3.17;2.90;;;;;;;;;;6157840;23;20006;-72
2022/07/30 05:50:41;;;;;;;3.47;3.10;;;;;;;;;;6157833;23;20056;-72
2022/07/30 05:53:07;;;;;;;5.60;2.90;;;;;;;;;;6156405;23;20307;-72
2022/07/30 05:55:33;;;;;;;4.63;2.88;;;;;;;;;;6157894;23;20060;-72
2022/07/30 05:57:59;;;;;;;5.43;2.90;;;;;;;;;;6158096;23;19997;-72
2022/07/30 06:00:25;;;;;;;3.20;2.38;;;;;;;;;;6157738;23;20001;-72
2022/07/30 06:02:51;;;;;;;3.63;2.78;;;;;;;;;;6156972;23;20005;-72
2022/07/30 06:05:18;;;;;;;2.40;2.20;;;;;;;;;;6157767;23;20009;-72
2022/07/30 06:07:44;;;;;;;5.32;2.60;;;;;;;;;;6157185;23;20080;-72
2022/07/30 06:10:11;;;;;;;2.95;2.00;;;;;;;;;;6157446;23;20006;-72
2022/07/30 06:12:37;;;;;;;2.92;1.90;;;;;;;;;;6139351;23;20939;-72
2022/07/30 06:15:04;;;;;;;3.80;2.45;;;;;;;;;;6137820;23;20095;-71
2022/07/30 06:17:36;;;;;;;4.55;2.20;;;;;;;;;;6138934;23;20856;31
2022/07/30 06:20:03;;;;;;;4.85;2.10;;;;;;;;;;6127192;23;20081;-71
2022/07/30 06:22:29;;;;;;;2.72;1.90;;;;;;;;;;6100590;23;20001;-72
2022/07/30 06:24:55;;;;;;;4.22;2.20;;;;;;;;;;6126204;23;20009;-72
2022/07/30 06:27:21;;;;;;;3.30;1.90;;;;;;;;;;6126426;23;20057;-72
2022/07/30 06:29:47;;;;;;;2.30;1.90;;;;;;;;;;6126492;23;20006;-72
2022/07/30 06:32:14;;;;;;;1.88;1.67;;;;;;;;;;6126409;23;20006;-72
2022/07/30 06:34:40;;;;;;;3.13;2.10;;;;;;;;;;6125995;23;20073;-72
2022/07/30 06:37:06;;;;;;;3.78;1.90;;;;;;;;;;6126084;23;20464;-72
2022/07/30 06:39:32;;;;;;;2.08;1.60;;;;;;;;;;6125765;23;20433;-72
2022/07/30 06:41:59;;;;;;;2.38;1.70;;;;;;;;;;6126420;23;20006;-73
2022/07/30 06:44:25;;;;;;;3.50;2.17;;;;;;;;;;6126082;23;20002;-72
2022/07/30 06:46:51;;;;;;;2.60;2.08;;;;;;;;;;6126381;23;20010;-72
2022/07/30 06:49:17;;;;;;;1.80;1.70;;;;;;;;;;6125606;23;20002;-72
2022/07/30 06:51:44;;;;;;;1.85;1.70;;;;;;;;;;6126404;23;20033;-72
2022/07/30 06:54:11;;;;;;;5.18;2.22;;;;;;;;;;6125869;23;20315;-72
2022/07/30 06:56:37;;;;;;;4.95;2.10;;;;;;;;;;6126300;23;20025;-72
2022/07/30 06:59:03;;;;;;;3.50;1.73;;;;;;;;;;6126491;23;20436;-72
2022/07/30 07:01:29;;;;;;;2.33;1.73;;;;;;;;;;6126325;23;20012;-72
2022/07/30 07:03:55;;;;;;;2.28;1.80;;;;;;;;;;6126085;23;20002;-72
2022/07/30 07:06:21;;;;;;;2.58;1.50;;;;;;;;;;6124182;23;20016;-72
2022/07/30 07:08:48;;;;;;;3.65;1.90;;;;;;;;;;6125896;23;20006;-72
2022/07/30 07:11:14;;;;;;;1.80;1.50;;;;;;;;;;6126006;23;20432;-72
2022/07/30 07:13:40;;;;;;;2.22;1.50;;;;;;;;;;6125586;23;20029;-70
2022/07/30 07:16:06;;;;;;;4.53;1.80;;;;;;;;;;6125714;23;20010;-71
2022/07/30 07:18:32;;;;;;;1.67;1.50;;;;;;;;;;6125087;23;20018;-71
2022/07/30 07:20:58;;;;;;;2.17;1.63;;;;;;;;;;6126015;23;20006;-71
2022/07/30 07:23:25;;;;;;;3.58;1.60;;;;;;;;;;6125689;23;20053;-71
2022/07/30 07:25:52;;;;;;;3.05;1.58;;;;;;;;;;6125544;23;20013;-71
2022/07/30 07:28:18;;;;;;;3.05;1.63;;;;;;;;;;6125715;23;20041;-71
2022/07/30 07:30:44;;;;;;;2.05;1.60;;;;;;;;;;6126133;23;20013;-71
2022/07/30 07:33:11;;;;;;;2.72;1.58;;;;;;;;;;6125239;23;20342;-71
2022/07/30 07:35:37;;;;;;;4.15;1.80;;;;;;;;;;6125784;23;20088;-71
2022/07/30 07:38:03;;;;;;;3.17;2.15;;;;;;;;;;6125363;23;20006;-71
2022/07/30 07:40:29;;;;;;;2.92;1.80;;;;;;;;;;6125693;23;20006;-71
2022/07/30 07:42:55;;;;;;;1.60;1.50;;;;;;;;;;6125373;23;20008;-71
2022/07/30 07:45:21;;;;;;;3.70;1.92;;;;;;;;;;6148412;23;20013;-67
2022/07/30 07:47:48;;;;;;;3.92;1.70;;;;;;;;;;6125813;23;20002;-67
2022/07/30 07:50:16;;;;;;;2.85;1.80;;;;;;;;;;6125421;23;20002;-67
2022/07/30 07:52:42;;;;;;;6.80;1.88;;;;;;;;;;6125549;23;20444;-67
2022/07/30 07:55:08;;;;;;;4.63;2.20;;;;;;;;;;6125230;23;20334;-67
2022/07/30 07:57:38;;;;;;;3.15;1.80;;;;;;;;;;6125627;23;20385;-68
2022/07/30 08:00:05;;;;;;;2.90;2.00;;;;;;;;;;6125416;23;20005;-68
2022/07/30 08:02:31;;;;;;;2.83;2.10;;;;;;;;;;6125227;23;20571;-67
2022/07/30 08:04:57;;;;;;;2.28;1.90;;;;;;;;;;6125853;23;20077;-67
2022/07/30 08:07:23;;;;;;;5.85;2.13;;;;;;;;;;6125836;23;20060;-67
2022/07/30 08:09:49;;;;;;;4.68;1.95;;;;;;;;;;6125753;23;20016;-67
2022/07/30 08:12:15;;;;;;;3.75;2.03;;;;;;;;;;6125831;23;20002;-67
2022/07/30 08:14:41;;;;;;;4.32;1.90;;;;;;;;;;6125847;23;20013;-67
2022/07/30 08:17:08;;;;;;;4.03;1.65;;;;;;;;;;6125440;23;20006;-67
2022/07/30 08:19:34;;;;;;;3.00;1.80;;;;;;;;;;6125528;23;20345;-67
2022/07/30 08:22:00;;;;;;;2.60;1.80;;;;;;;;;;6125800;23;20068;-67
2022/07/30 08:24:26;;;;;;;3.42;1.80;;;;;;;;;;6125318;23;20037;-67
2022/07/30 08:26:52;;;;;;;2.53;1.50;;;;;;;;;;6125725;23;20033;-67
2022/07/30 08:29:18;;;;;;;2.22;1.92;;;;;;;;;;6125483;23;20010;-67
2022/07/30 08:31:44;;;;;;;2.45;2.22;;;;;;;;;;6125743;23;20016;-67
2022/07/30 08:34:12;;;;;;;5.10;1.77;;;;;;;;;;6125461;23;20009;-67
2022/07/30 08:36:38;;;;;;;4.85;1.63;;;;;;;;;;6125628;23;20006;-67
2022/07/30 08:39:04;;;;;;;5.55;2.10;;;;;;;;;;6125860;23;20013;-67
2022/07/30 08:41:30;;;;;;;3.15;1.67;;;;;;;;;;6125690;23;20002;-67
2022/07/30 08:43:57;;;;;;;3.95;1.50;;;;;;;;;;6125683;23;20053;-67
2022/07/30 08:46:25;;;;;;;3.88;1.80;;;;;;;;;;6127123;23;20011;-67
2022/07/30 08:48:51;;;;;;;4.18;1.60;;;;;;;;;;6127501;23;20032;-67
2022/07/30 08:51:19;;;;;;;2.47;1.63;;;;;;;;;;6127498;23;20422;-67
2022/07/30 08:53:46;;;;;;;3.72;1.50;;;;;;;;;;6127452;23;20006;-67
2022/07/30 08:56:12;;;;;;;2.50;1.48;;;;;;;;;;6127189;23;20006;-68
2022/07/30 08:58:38;;;;;;;3.30;1.60;;;;;;;;;;6127330;23;20006;-67
2022/07/30 09:01:05;;;;;;;2.47;1.52;;;;;;;;;;6126984;23;20005;-67
2022/07/30 09:03:32;;;;;;;3.30;1.42;;;;;;;;;;6127260;23;20449;-67
2022/07/30 09:05:58;;;;;;;1.80;1.40;;;;;;;;;;6125826;23;20002;-68
2022/07/30 09:08:24;;;;;;;4.28;1.70;;;;;;;;;;6121453;23;20017;-68
2022/07/30 09:10:50;;;;;;;1.83;1.52;;;;;;;;;;6126307;23;20006;-68
2022/07/30 09:13:24;;;;;;;1.50;1.40;;;;;;;;;;6126581;23;20095;-68
2022/07/30 09:15:50;;;;;;;3.03;1.30;;;;;;;;;;6126175;23;20319;-69
2022/07/30 09:18:26;;;;;;;2.90;1.90;;;;;;;;;;6125064;23;20022;-69
2022/07/30 09:20:52;;;;;;;4.03;1.50;;;;;;;;;;6126866;23;20032;-69
2022/07/30 09:23:19;;;;;;;1.50;1.20;;;;;;;;;;6126698;23;20002;-69
2022/07/30 09:25:46;;;;;;;2.65;1.30;;;;;;;;;;6126179;23;20002;-69
2022/07/30 09:28:13;;;;;;;1.83;1.50;;;;;;;;;;6126492;23;20434;-69
2022/07/30 09:30:46;;;;;;;3.08;1.63;;;;;;;;;;6126755;23;20030;-68
2022/07/30 09:33:12;;;;;;;2.00;1.40;;;;;;;;;;6126445;23;20060;-68
2022/07/30 09:35:39;;;;;;;1.85;1.30;;;;;;;;;;6126201;23;20006;-68
2022/07/30 09:38:06;;;;;;;2.55;1.48;;;;;;;;;;6126285;23;20002;-68
2022/07/30 09:40:32;;;;;;;2.88;1.83;;;;;;;;;;6125550;23;20013;-69
2022/07/30 09:43:17;;;;;;;3.75;1.50;;;;;;;;;;6126670;23;20010;-68
2022/07/30 09:45:54;;;;;;;3.67;1.50;;;;;;;;;;6126533;23;20010;-68
2022/07/30 09:48:24;;;;;;;4.25;1.60;;;;;;;;;;6126104;23;20580;-68
2022/07/30 09:50:51;;;;;;;2.35;1.15;;;;;;;;;;6126335;23;20069;-69
2022/07/30 09:53:18;;;;;;;2.28;1.52;;;;;;;;;;6125839;23;20005;-68
2022/07/30 09:55:45;;;;;;;1.70;1.30;;;;;;;;;;6121715;23;20013;-69
2022/07/30 09:58:12;;;;;;;2.90;1.50;;;;;;;;;;6123955;23;20002;-69
2022/07/30 10:00:39;;;;;;;5.35;1.70;;;;;;;;;;6125747;23;20002;-69
2022/07/30 10:03:19;;;;;;;3.45;1.58;;;;;;;;;;6125455;23;20432;-69
2022/07/30 10:05:52;;;;;;;2.65;1.90;;;;;;;;;;6125331;23;20436;-69
2022/07/30 10:08:18;;;;;;;3.10;1.63;;;;;;;;;;6124878;23;20006;-70
2022/07/30 10:10:46;;;;;;;2.72;1.70;;;;;;;;;;6125284;23;20002;-70
2022/07/30 10:13:13;;;;;;;2.83;1.60;;;;;;;;;;6125125;23;20006;-69
2022/07/30 10:15:39;;;;;;;2.33;1.73;;;;;;;;;;6125219;23;20504;-69
2022/07/30 10:18:06;;;;;;;4.07;1.80;;;;;;;;;;6125330;23;20081;-69
2022/07/30 10:20:32;;;;;;;3.38;1.88;;;;;;;;;;6125199;23;20001;-69
2022/07/30 10:22:59;;;;;;;3.10;1.58;;;;;;;;;;6124556;23;20535;-69
2022/07/30 10:25:26;;;;;;;2.67;1.60;;;;;;;;;;6125840;23;19998;-69
2022/07/30 10:27:52;;;;;;;6.28;2.13;;;;;;;;;;6127517;23;20033;-69
2022/07/30 10:30:19;;;;;;;2.80;1.30;;;;;;;;;;6127452;23;20009;-70
2022/07/30 10:32:47;;;;;;;4.30;1.40;;;;;;;;;;6127367;23;20005;-70
2022/07/30 10:35:13;;;;;;;3.80;1.73;;;;;;;;;;6127107;23;20065;-70
2022/07/30 10:37:45;;;;;;;2.58;1.38;;;;;;;;;;6126955;23;20009;-70
2022/07/30 10:40:11;;;;;;;2.22;1.50;;;;;;;;;;6127146;23;20006;-70
2022/07/30 10:42:43;;;;;;;3.03;1.30;;;;;;;;;;6127296;23;20405;-70
2022/07/30 10:45:15;;;;;;;1.75;1.50;;;;;;;;;;6126500;23;20002;-69
2022/07/30 10:47:42;;;;;;;3.17;1.45;;;;;;;;;;6126949;23;20014;-70
2022/07/30 10:50:10;;;;;;;2.28;1.80;;;;;;;;;;6126781;23;20002;-70
2022/07/30 10:52:52;;;;;;;1.85;1.33;;;;;;;;;;6127145;23;20085;-70
2022/07/30 10:55:20;;;;;;;3.65;1.42;;;;;;;;;;6127137;23;20012;-70
2022/07/30 10:58:12;;;;;;;3.75;1.58;;;;;;;;;;6126808;23;20349;-70
2022/07/30 11:00:50;;;;;;;1.67;1.50;;;;;;;;;;6122668;23;20013;-70
2022/07/30 11:03:18;;;;;;;3.00;1.40;;;;;;;;;;6126925;23;20013;-70
2022/07/30 11:05:48;;;;;;;12.73;1.90;;;;;;;;;;6127036;23;20414;-81
2022/07/30 11:08:34;;;;;;;4.68;1.70;;;;;;;;;;6127207;23;20009;-72
2022/07/30 11:11:00;;;;;;;2.47;1.58;;;;;;;;;;6126947;23;20033;-71
2022/07/30 11:14:02;;;;;;;3.60;1.50;;;;;;;;;;6127153;23;20005;-71
2022/07/30 11:16:34;;;;;;;1.42;1.33;;;;;;;;;;6037765;23;20022;-71
2022/07/30 11:19:07;;;;;;;4.88;1.63;;;;;;;;;;6114976;23;20045;-71
2022/07/30 11:21:34;;;;;;;6.40;1.40;;;;;;;;;;6126936;23;20010;-70
2022/07/30 11:24:01;;;;;;;3.28;1.52;;;;;;;;;;6127197;23;20033;-71
2022/07/30 11:26:42;;;;;;;2.75;1.23;;;;;;;;;;6127119;23;20013;-69
2022/07/30 11:29:28;;;;;;;4.70;1.55;;;;;;;;;;6127083;23;20010;-70
2022/07/30 11:31:56;;;;;;;1.88;1.45;;;;;;;;;;6126641;23;20002;-69
2022/07/30 11:34:24;;;;;;;4.32;1.85;;;;;;;;;;6126793;23;20002;-70
2022/07/30 11:37:03;;;;;;;3.67;1.48;;;;;;;;;;6126828;23;20006;-71
2022/07/30 11:39:47;;;;;;;2.72;1.30;;;;;;;;;;6126739;23;20006;-70
2022/07/30 11:42:23;;;;;;;2.42;1.20;;;;;;;;;;6126145;23;20094;-69
2022/07/30 11:44:49;;;;;;;3.50;1.20;;;;;;;;;;6125680;23;20345;-70
2022/07/30 11:47:15;;;;;;;2.70;1.48;;;;;;;;;;6121424;23;20005;-70
2022/07/30 11:49:41;;;;;;;3.72;1.58;;;;;;;;;;6125651;23;20014;-70
2022/07/30 11:52:08;;;;;;;2.72;1.35;;;;;;;;;;6125540;23;20449;-71
2022/07/30 11:54:50;;;;;;;5.63;1.20;;;;;;;;;;6125408;23;20349;-70
2022/07/30 11:57:16;;;;;;;2.65;1.30;;;;;;;;;;6126333;23;20008;-72
2022/07/30 12:00:00;;;;;;;5.47;1.30;;;;;;;;;;6126019;23;20064;-73
2022/07/30 12:02:27;;;;;;;2.03;1.30;;;;;;;;;;6125725;23;19998;-73
2022/07/30 12:04:53;;;;;;;1.83;1.23;;;;;;;;;;6126001;23;20010;-72
2022/07/30 12:07:23;;;;;;;2.25;1.10;;;;;;;;;;6124241;23;20013;-73
2022/07/30 12:09:49;;;;;;;3.17;1.42;;;;;;;;;;6123649;23;20034;-72
2022/07/30 12:12:26;;;;;;;1.63;1.40;;;;;;;;;;6125327;23;20025;-70
2022/07/30 12:14:52;;;;;;;2.35;1.20;;;;;;;;;;6125328;23;20002;-70
2022/07/30 12:17:18;;;;;;;5.38;1.25;;;;;;;;;;6124497;23;20025;-70
2022/07/30 12:19:45;;;;;;;2.10;1.20;;;;;;;;;;6124932;23;20050;-70
2022/07/30 12:22:11;;;;;;;2.47;1.13;;;;;;;;;;6127565;23;20025;-71
2022/07/30 12:24:37;;;;;;;4.22;1.25;;;;;;;;;;6128370;23;20028;-71
2022/07/30 12:27:07;;;;;;;1.73;1.10;;;;;;;;;;6127618;23;20017;-71
2022/07/30 12:29:36;;;;;;;1.13;0.93;;;;;;;;;;6128396;23;20014;-71
2022/07/30 12:32:02;;;;;;;2.08;1.05;;;;;;;;;;6128778;23;20013;-71
2022/07/30 12:34:29;;;;;;;5.78;1.40;;;;;;;;;;6127940;23;20002;-71
2022/07/30 12:36:55;;;;;;;1.65;1.30;;;;;;;;;;6128682;23;20039;-71
2022/07/30 12:39:23;;;;;;;4.45;1.25;;;;;;;;;;6128244;23;20111;-71
2022/07/30 12:41:57;;;;;;;3.10;1.10;;;;;;;;;;6128698;23;20008;-71
2022/07/30 12:44:47;;;;;;;2.70;1.40;;;;;;;;;;6127835;23;20080;-71
2022/07/30 12:47:20;;;;;;;3.13;1.20;;;;;;;;;;6128530;23;20010;-71
2022/07/30 12:49:46;;;;;;;1.67;1.40;;;;;;;;;;6128024;23;20016;-71
2022/07/30 12:52:22;;;;;;;1.38;1.27;;;;;;;;;;6128235;23;20010;-71
2022/07/30 12:54:58;;;;;;;1.83;1.10;;;;;;;;;;6128479;23;20002;-71
2022/07/30 12:57:24;;;;;;;1.75;1.23;;;;;;;;;;6128094;23;20018;-71
2022/07/30 13:00:02;;;;;;;2.10;1.20;;;;;;;;;;6128191;23;20066;-71
2022/07/30 13:02:32;;;;;;;3.40;1.00;;;;;;;;;;6128557;23;20414;-71
2022/07/30 13:04:58;;;;;;;2.15;1.10;;;;;;;;;;6127527;23;20008;-71
2022/07/30 13:07:27;;;;;;;3.63;1.20;;;;;;;;;;6128318;23;20021;-71
2022/07/30 13:10:12;;;;;;;2.38;1.02;;;;;;;;;;6127502;23;20010;-71
2022/07/30 13:12:38;;;;;;;3.15;1.15;;;;;;;;;;6128101;23;20041;-71
2022/07/30 13:15:05;;;;;;;1.63;1.08;;;;;;;;;;6127715;23;20001;-71
2022/07/30 13:17:31;;;;;;;2.72;1.20;;;;;;;;;;6128082;23;20010;-72
2022/07/30 13:19:59;;;;;;;2.35;0.98;;;;;;;;;;6128217;23;20018;-71
2022/07/30 13:22:25;;;;;;;5.18;1.23;;;;;;;;;;6127601;23;20500;-71
2022/07/30 13:24:52;;;;;;;2.70;1.00;;;;;;;;;;6127223;23;20002;-72
2022/07/30 13:27:18;;;;;;;2.28;1.33;;;;;;;;;;6127632;23;20040;-72
2022/07/30 13:29:44;;;;;;;1.25;1.15;;;;;;;;;;6124781;23;20084;-72
2022/07/30 13:32:10;;;;;;;1.77;1.05;;;;;;;;;;6127075;23;20532;-72
2022/07/30 13:34:36;;;;;;;1.63;1.02;;;;;;;;;;6126729;23;20025;-71
2022/07/30 13:37:02;;;;;;;1.15;1.05;;;;;;;;;;6126653;23;20480;-72
2022/07/30 13:39:28;;;;;;;1.50;1.05;;;;;;;;;;6127235;23;20002;-72
2022/07/30 13:41:54;;;;;;;1.92;1.10;;;;;;;;;;6127241;23;20489;-72
2022/07/30 13:44:20;;;;;;;1.45;1.13;;;;;;;;;;6126564;23;20002;-73
2022/07/30 13:46:47;;;;;;;1.80;1.20;;;;;;;;;;6126823;23;20515;-72
2022/07/30 13:49:13;;;;;;;5.30;1.20;;;;;;;;;;6127383;23;20013;-73
2022/07/30 13:51:39;;;;;;;1.55;1.10;;;;;;;;;;6126956;23;20009;-73
2022/07/30 13:54:06;;;;;;;2.35;1.20;;;;;;;;;;6127294;23;20002;-73
2022/07/30 13:56:32;;;;;;;1.10;1.00;;;;;;;;;;6126828;23;20427;-72
2022/07/30 13:58:59;;;;;;;1.10;1.00;;;;;;;;;;6126240;23;20002;-73
2022/07/30 14:01:25;;;;;;;2.92;1.17;;;;;;;;;;6126799;23;20006;-73
2022/07/30 14:03:51;;;;;;;2.25;1.10;;;;;;;;;;6126899;23;19998;-73
2022/07/30 14:06:18;;;;;;;1.23;0.82;;;;;;;;;;6125053;23;20398;-73
2022/07/30 14:08:45;;;;;;;2.92;1.00;;;;;;;;;;6127382;23;20006;-74
2022/07/30 14:11:11;;;;;;;1.15;0.90;;;;;;;;;;6125620;23;20033;-72
2022/07/30 14:13:37;;;;;;;3.35;0.90;;;;;;;;;;6125829;23;20001;-72
2022/07/30 14:16:03;;;;;;;1.98;1.30;;;;;;;;;;6126489;23;20020;-75
2022/07/30 14:18:29;;;;;;;1.77;0.82;;;;;;;;;;6126209;23;20057;-72
2022/07/30 14:20:56;;;;;;;2.17;1.00;;;;;;;;;;6126803;23;20399;-70
2022/07/30 14:23:22;;;;;;;1.95;0.80;;;;;;;;;;6127158;23;20006;-70
2022/07/30 14:25:48;;;;;;;2.45;1.00;;;;;;;;;;6126552;23;20039;-70
2022/07/30 14:28:15;;;;;;;3.08;1.10;;;;;;;;;;6126784;23;20029;-72
2022/07/30 14:30:41;;;;;;;5.20;2.38;;;;;;;;;;6127361;23;20002;-72
2022/07/30 14:33:07;;;;;;;13.45;12.05;;;;;;;;;;6125717;23;20006;-72
2022/07/30 14:35:33;;;;;;;1.27;1.17;;;;;;;;;;6127363;23;20065;-72
2022/07/30 14:37:59;;;;;;;1.70;1.00;;;;;;;;;;6127467;23;19998;-72
2022/07/30 14:40:25;;;;;;;1.08;0.80;;;;;;;;;;6126701;23;20009;-72
2022/07/30 14:42:51;;;;;;;3.33;1.20;;;;;;;;;;6126107;23;20426;-72
2022/07/30 14:45:18;;;;;;;1.15;0.90;;;;;;;;;;6127136;23;20065;-72
2022/07/30 14:47:44;;;;;;;1.15;0.90;;;;;;;;;;6126604;23;20322;-72
2022/07/30 14:50:10;;;;;;;1.90;1.30;;;;;;;;;;6126552;23;20033;-72